sensor_id;sensor_type;location;lat;lon;timestamp;temperature;humidity
10722;DHT22;5412;59.450;18.124;2022-07-03T00:01:33;18.10;99.90
10722;DHT22;5412;59.450;18.124;2022-07-03T00:03:58;18.10;99.90
10722;DHT22;5412;59.450;18.124;2022-07-03T00:06:26;18.20;99.90
10722;DHT22;5412;59.450;18.124;2022-07-03T00:08:52;18.20;99.90
10722;DHT22;5412;59.450;18.124;2022-07-03T00:11:18;18.20;99.90
10722;DHT22;5412;59.450;18.124;2022-07-03T00:13:43;18.20;99.90
10722;DHT22;5412;59.450;18.124;2022-07-03T00:16:09;18.20;99.90
10722;DHT22;5412;59.450;18.124;2022-07-03T00:18:34;18.10;99.90
10722;DHT22;5412;59.450;18.124;2022-07-03T00:21:03;17.90;99.90
10722;DHT22;5412;59.450;18.124;2022-07-03T00:23:37;17.90;99.90
10722;DHT22;5412;59.450;18.124;2022-07-03T00:26:05;17.90;99.90
10722;DHT22;5412;59.450;18.124;2022-07-03T00:28:31;18.90;99.90
10722;DHT22;5412;59.450;18.124;2022-07-03T00:30:57;17.80;99.90
10722;DHT22;5412;59.450;18.124;2022-07-03T00:33:27;17.70;99.90
10722;DHT22;5412;59.450;18.124;2022-07-03T00:35:55;17.60;99.90
10722;DHT22;5412;59.450;18.124;2022-07-03T00:38:22;17.60;99.90
10722;DHT22;5412;59.450;18.124;2022-07-03T00:40:48;17.70;99.90
10722;DHT22;5412;59.450;18.124;2022-07-03T00:43:15;17.70;99.90
10722;DHT22;5412;59.450;18.124;2022-07-03T00:45:45;17.60;99.90
10722;DHT22;5412;59.450;18.124;2022-07-03T00:48:17;17.50;99.90
10722;DHT22;5412;59.450;18.124;2022-07-03T00:50:48;17.50;99.90
10722;DHT22;5412;59.450;18.124;2022-07-03T00:53:18;17.50;99.90
10722;DHT22;5412;59.450;18.124;2022-07-03T00:55:47;17.40;99.90
10722;DHT22;5412;59.450;18.124;2022-07-03T00:58:16;17.30;99.90
10722;DHT22;5412;59.450;18.124;2022-07-03T01:00:44;17.30;99.90
10722;DHT22;5412;59.450;18.124;2022-07-03T01:03:15;17.30;99.90
10722;DHT22;5412;59.450;18.124;2022-07-03T01:06:08;17.30;99.90
10722;DHT22;5412;59.450;18.124;2022-07-03T01:08:51;17.20;99.90
10722;DHT22;5412;59.450;18.124;2022-07-03T01:14:38;17.10;99.90
10722;DHT22;5412;59.450;18.124;2022-07-03T01:17:17;17.20;99.90
10722;DHT22;5412;59.450;18.124;2022-07-03T01:19:48;17.10;99.90
10722;DHT22;5412;59.450;18.124;2022-07-03T01:22:43;17.00;99.90
10722;DHT22;5412;59.450;18.124;2022-07-03T01:25:22;17.00;99.90
10722;DHT22;5412;59.450;18.124;2022-07-03T01:28:07;17.00;99.90
10722;DHT22;5412;59.450;18.124;2022-07-03T01:30:39;17.00;99.90
10722;DHT22;5412;59.450;18.124;2022-07-03T01:33:06;16.90;99.90
10722;DHT22;5412;59.450;18.124;2022-07-03T01:35:39;17.00;99.90
10722;DHT22;5412;59.450;18.124;2022-07-03T01:38:10;17.00;99.90
10722;DHT22;5412;59.450;18.124;2022-07-03T01:40:38;17.00;99.90
10722;DHT22;5412;59.450;18.124;2022-07-03T01:43:06;16.90;99.90
10722;DHT22;5412;59.450;18.124;2022-07-03T01:45:36;16.90;99.90
10722;DHT22;5412;59.450;18.124;2022-07-03T01:48:02;16.90;99.90
10722;DHT22;5412;59.450;18.124;2022-07-03T01:50:30;17.00;99.90
10722;DHT22;5412;59.450;18.124;2022-07-03T01:52:59;16.90;99.90
10722;DHT22;5412;59.450;18.124;2022-07-03T01:55:30;16.80;99.90
10722;DHT22;5412;59.450;18.124;2022-07-03T01:57:57;16.70;99.90
10722;DHT22;5412;59.450;18.124;2022-07-03T02:00:23;16.70;99.90
10722;DHT22;5412;59.450;18.124;2022-07-03T02:03:03;16.70;99.90
10722;DHT22;5412;59.450;18.124;2022-07-03T02:05:42;16.80;99.90
10722;DHT22;5412;59.450;18.124;2022-07-03T02:08:33;16.80;99.90
10722;DHT22;5412;59.450;18.124;2022-07-03T02:11:20;16.90;99.90
10722;DHT22;5412;59.450;18.124;2022-07-03T02:16:22;16.70;99.90
10722;DHT22;5412;59.450;18.124;2022-07-03T02:21:27;16.80;99.90
10722;DHT22;5412;59.450;18.124;2022-07-03T02:26:33;16.80;99.90
10722;DHT22;5412;59.450;18.124;2022-07-03T02:29:03;16.70;99.90
10722;DHT22;5412;59.450;18.124;2022-07-03T02:31:48;16.70;99.90
10722;DHT22;5412;59.450;18.124;2022-07-03T02:34:23;16.70;99.90
10722;DHT22;5412;59.450;18.124;2022-07-03T02:36:51;16.70;99.90
10722;DHT22;5412;59.450;18.124;2022-07-03T02:39:32;16.80;99.90
10722;DHT22;5412;59.450;18.124;2022-07-03T02:42:03;16.80;99.90
10722;DHT22;5412;59.450;18.124;2022-07-03T02:44:51;16.80;99.90
10722;DHT22;5412;59.450;18.124;2022-07-03T02:47:29;16.80;99.90
10722;DHT22;5412;59.450;18.124;2022-07-03T02:50:07;16.90;99.90
10722;DHT22;5412;59.450;18.124;2022-07-03T02:58:02;17.20;99.90
10722;DHT22;5412;59.450;18.124;2022-07-03T03:00:35;17.30;99.90
10722;DHT22;5412;59.450;18.124;2022-07-03T03:03:02;17.30;99.90
10722;DHT22;5412;59.450;18.124;2022-07-03T03:10:47;17.50;99.90
10722;DHT22;5412;59.450;18.124;2022-07-03T03:13:15;17.50;99.90
10722;DHT22;5412;59.450;18.124;2022-07-03T03:16:09;17.50;99.90
10722;DHT22;5412;59.450;18.124;2022-07-03T03:18:37;17.50;99.90
10722;DHT22;5412;59.450;18.124;2022-07-03T03:21:05;17.50;99.90
10722;DHT22;5412;59.450;18.124;2022-07-03T03:26:19;17.60;99.90
10722;DHT22;5412;59.450;18.124;2022-07-03T03:28:45;17.70;99.90
10722;DHT22;5412;59.450;18.124;2022-07-03T03:31:12;17.80;99.90
10722;DHT22;5412;59.450;18.124;2022-07-03T03:33:51;17.70;99.90
10722;DHT22;5412;59.450;18.124;2022-07-03T03:36:18;17.80;99.90
10722;DHT22;5412;59.450;18.124;2022-07-03T03:38:46;17.90;99.90
10722;DHT22;5412;59.450;18.124;2022-07-03T03:41:13;17.90;99.90
10722;DHT22;5412;59.450;18.124;2022-07-03T03:43:38;18.00;99.90
10722;DHT22;5412;59.450;18.124;2022-07-03T03:46:04;18.00;99.90
10722;DHT22;5412;59.450;18.124;2022-07-03T03:48:33;18.10;99.90
10722;DHT22;5412;59.450;18.124;2022-07-03T03:51:01;18.10;99.90
10722;DHT22;5412;59.450;18.124;2022-07-03T03:53:28;18.20;99.90
10722;DHT22;5412;59.450;18.124;2022-07-03T03:56:02;18.30;99.90
10722;DHT22;5412;59.450;18.124;2022-07-03T03:58:31;18.20;99.90
10722;DHT22;5412;59.450;18.124;2022-07-03T04:00:58;18.20;99.90
10722;DHT22;5412;59.450;18.124;2022-07-03T04:03:25;18.40;99.90
10722;DHT22;5412;59.450;18.124;2022-07-03T04:05:51;18.40;99.90
10722;DHT22;5412;59.450;18.124;2022-07-03T04:08:18;18.30;99.90
10722;DHT22;5412;59.450;18.124;2022-07-03T04:10:44;18.30;99.90
10722;DHT22;5412;59.450;18.124;2022-07-03T04:13:09;18.40;99.90
10722;DHT22;5412;59.450;18.124;2022-07-03T04:15:35;18.50;99.90
10722;DHT22;5412;59.450;18.124;2022-07-03T04:18:00;18.40;99.90
10722;DHT22;5412;59.450;18.124;2022-07-03T04:20:26;18.50;99.90
10722;DHT22;5412;59.450;18.124;2022-07-03T04:22:52;18.60;99.90
10722;DHT22;5412;59.450;18.124;2022-07-03T04:25:18;18.60;99.90
10722;DHT22;5412;59.450;18.124;2022-07-03T04:27:43;18.70;99.90
10722;DHT22;5412;59.450;18.124;2022-07-03T04:30:09;18.70;99.90
10722;DHT22;5412;59.450;18.124;2022-07-03T04:32:39;18.80;99.90
10722;DHT22;5412;59.450;18.124;2022-07-03T04:35:05;18.70;99.90
10722;DHT22;5412;59.450;18.124;2022-07-03T04:37:31;18.80;99.90
10722;DHT22;5412;59.450;18.124;2022-07-03T04:39:56;18.90;99.90
10722;DHT22;5412;59.450;18.124;2022-07-03T04:42:22;18.90;99.90
10722;DHT22;5412;59.450;18.124;2022-07-03T04:44:48;19.00;99.90
10722;DHT22;5412;59.450;18.124;2022-07-03T04:47:13;19.10;99.90
10722;DHT22;5412;59.450;18.124;2022-07-03T04:49:40;19.20;99.90
10722;DHT22;5412;59.450;18.124;2022-07-03T04:52:07;19.10;99.90
10722;DHT22;5412;59.450;18.124;2022-07-03T04:54:33;19.20;99.90
10722;DHT22;5412;59.450;18.124;2022-07-03T04:56:58;19.20;99.90
10722;DHT22;5412;59.450;18.124;2022-07-03T04:59:24;19.30;99.90
10722;DHT22;5412;59.450;18.124;2022-07-03T05:01:49;19.40;99.90
10722;DHT22;5412;59.450;18.124;2022-07-03T05:04:16;19.50;99.90
10722;DHT22;5412;59.450;18.124;2022-07-03T05:06:42;19.50;99.90
10722;DHT22;5412;59.450;18.124;2022-07-03T05:09:07;19.60;99.90
10722;DHT22;5412;59.450;18.124;2022-07-03T05:11:33;19.50;99.90
10722;DHT22;5412;59.450;18.124;2022-07-03T05:13:59;19.60;99.90
10722;DHT22;5412;59.450;18.124;2022-07-03T05:16:24;19.70;99.90
10722;DHT22;5412;59.450;18.124;2022-07-03T05:18:50;19.80;99.90
10722;DHT22;5412;59.450;18.124;2022-07-03T05:21:15;19.70;99.90
10722;DHT22;5412;59.450;18.124;2022-07-03T05:23:41;19.80;99.90
10722;DHT22;5412;59.450;18.124;2022-07-03T05:26:07;19.90;99.90
10722;DHT22;5412;59.450;18.124;2022-07-03T05:28:32;19.90;99.90
10722;DHT22;5412;59.450;18.124;2022-07-03T05:30:58;20.00;99.90
10722;DHT22;5412;59.450;18.124;2022-07-03T05:33:24;20.00;99.90
10722;DHT22;5412;59.450;18.124;2022-07-03T05:35:49;19.90;99.90
10722;DHT22;5412;59.450;18.124;2022-07-03T05:38:15;20.00;99.90
10722;DHT22;5412;59.450;18.124;2022-07-03T05:41:01;20.20;99.90
10722;DHT22;5412;59.450;18.124;2022-07-03T05:43:26;20.20;99.90
10722;DHT22;5412;59.450;18.124;2022-07-03T05:45:52;20.20;99.90
10722;DHT22;5412;59.450;18.124;2022-07-03T05:48:18;20.00;99.90
10722;DHT22;5412;59.450;18.124;2022-07-03T05:50:43;20.00;99.90
10722;DHT22;5412;59.450;18.124;2022-07-03T05:53:09;20.20;99.90
10722;DHT22;5412;59.450;18.124;2022-07-03T05:55:34;20.30;99.90
10722;DHT22;5412;59.450;18.124;2022-07-03T05:58:00;20.40;99.90
10722;DHT22;5412;59.450;18.124;2022-07-03T06:00:25;20.40;99.90
10722;DHT22;5412;59.450;18.124;2022-07-03T06:02:51;20.40;99.90
10722;DHT22;5412;59.450;18.124;2022-07-03T06:05:17;20.60;99.90
10722;DHT22;5412;59.450;18.124;2022-07-03T06:07:42;20.60;99.90
10722;DHT22;5412;59.450;18.124;2022-07-03T06:10:08;20.60;99.90
10722;DHT22;5412;59.450;18.124;2022-07-03T06:12:33;20.70;99.90
10722;DHT22;5412;59.450;18.124;2022-07-03T06:14:59;20.80;99.90
10722;DHT22;5412;59.450;18.124;2022-07-03T06:17:25;20.90;99.90
10722;DHT22;5412;59.450;18.124;2022-07-03T06:19:50;21.00;99.90
10722;DHT22;5412;59.450;18.124;2022-07-03T06:22:16;21.10;99.90
10722;DHT22;5412;59.450;18.124;2022-07-03T06:24:41;21.30;99.90
10722;DHT22;5412;59.450;18.124;2022-07-03T06:27:07;21.30;99.90
10722;DHT22;5412;59.450;18.124;2022-07-03T06:29:32;21.30;99.90
10722;DHT22;5412;59.450;18.124;2022-07-03T06:31:58;21.40;99.90
10722;DHT22;5412;59.450;18.124;2022-07-03T06:34:25;21.40;99.90
10722;DHT22;5412;59.450;18.124;2022-07-03T06:36:50;21.40;99.90
10722;DHT22;5412;59.450;18.124;2022-07-03T06:39:16;21.50;99.90
10722;DHT22;5412;59.450;18.124;2022-07-03T06:41:42;21.70;99.90
10722;DHT22;5412;59.450;18.124;2022-07-03T06:44:07;21.60;99.90
10722;DHT22;5412;59.450;18.124;2022-07-03T06:46:33;21.50;99.90
10722;DHT22;5412;59.450;18.124;2022-07-03T06:48:59;21.60;99.90
10722;DHT22;5412;59.450;18.124;2022-07-03T06:51:24;21.60;99.90
10722;DHT22;5412;59.450;18.124;2022-07-03T06:53:50;21.40;99.90
10722;DHT22;5412;59.450;18.124;2022-07-03T06:56:15;21.60;99.90
10722;DHT22;5412;59.450;18.124;2022-07-03T06:58:41;21.60;99.90
10722;DHT22;5412;59.450;18.124;2022-07-03T07:01:07;21.60;99.90
10722;DHT22;5412;59.450;18.124;2022-07-03T07:03:32;21.60;99.90
10722;DHT22;5412;59.450;18.124;2022-07-03T07:05:58;21.80;99.90
10722;DHT22;5412;59.450;18.124;2022-07-03T07:08:23;21.80;99.90
10722;DHT22;5412;59.450;18.124;2022-07-03T07:10:49;21.70;99.90
10722;DHT22;5412;59.450;18.124;2022-07-03T07:13:14;21.70;99.90
10722;DHT22;5412;59.450;18.124;2022-07-03T07:15:40;21.60;99.90
10722;DHT22;5412;59.450;18.124;2022-07-03T07:18:06;21.70;99.90
10722;DHT22;5412;59.450;18.124;2022-07-03T07:20:31;21.90;99.90
10722;DHT22;5412;59.450;18.124;2022-07-03T07:22:57;22.10;99.90
10722;DHT22;5412;59.450;18.124;2022-07-03T07:25:22;22.20;99.90
10722;DHT22;5412;59.450;18.124;2022-07-03T07:27:48;22.20;99.90
10722;DHT22;5412;59.450;18.124;2022-07-03T07:30:14;22.20;99.90
10722;DHT22;5412;59.450;18.124;2022-07-03T07:32:39;22.10;99.90
10722;DHT22;5412;59.450;18.124;2022-07-03T07:35:05;22.10;99.90
10722;DHT22;5412;59.450;18.124;2022-07-03T07:37:31;22.10;99.90
10722;DHT22;5412;59.450;18.124;2022-07-03T07:39:57;22.30;99.90
10722;DHT22;5412;59.450;18.124;2022-07-03T07:42:22;22.50;99.90
10722;DHT22;5412;59.450;18.124;2022-07-03T07:44:49;22.70;99.90
10722;DHT22;5412;59.450;18.124;2022-07-03T07:47:15;22.50;99.90
10722;DHT22;5412;59.450;18.124;2022-07-03T07:49:41;22.40;99.90
10722;DHT22;5412;59.450;18.124;2022-07-03T07:52:06;22.30;99.90
10722;DHT22;5412;59.450;18.124;2022-07-03T07:54:32;22.30;99.90
10722;DHT22;5412;59.450;18.124;2022-07-03T07:56:58;22.00;99.90
10722;DHT22;5412;59.450;18.124;2022-07-03T07:59:24;21.70;99.90
10722;DHT22;5412;59.450;18.124;2022-07-03T08:01:49;21.80;99.90
10722;DHT22;5412;59.450;18.124;2022-07-03T08:04:33;22.20;99.90
10722;DHT22;5412;59.450;18.124;2022-07-03T08:07:17;22.20;99.90
10722;DHT22;5412;59.450;18.124;2022-07-03T08:09:43;22.10;99.90
10722;DHT22;5412;59.450;18.124;2022-07-03T08:12:09;22.10;99.90
10722;DHT22;5412;59.450;18.124;2022-07-03T08:14:34;21.90;99.90
10722;DHT22;5412;59.450;18.124;2022-07-03T08:17:00;21.90;99.90
10722;DHT22;5412;59.450;18.124;2022-07-03T08:19:26;21.80;99.90
10722;DHT22;5412;59.450;18.124;2022-07-03T08:21:51;22.00;99.90
10722;DHT22;5412;59.450;18.124;2022-07-03T08:24:17;22.00;99.90
10722;DHT22;5412;59.450;18.124;2022-07-03T08:26:42;22.20;99.90
10722;DHT22;5412;59.450;18.124;2022-07-03T08:29:08;22.30;99.90
10722;DHT22;5412;59.450;18.124;2022-07-03T08:31:34;22.50;99.90
10722;DHT22;5412;59.450;18.124;2022-07-03T08:33:59;23.00;99.90
10722;DHT22;5412;59.450;18.124;2022-07-03T08:36:25;23.30;99.90
10722;DHT22;5412;59.450;18.124;2022-07-03T08:38:50;23.40;99.90
10722;DHT22;5412;59.450;18.124;2022-07-03T08:41:16;23.40;99.90
10722;DHT22;5412;59.450;18.124;2022-07-03T08:43:43;23.30;99.90
10722;DHT22;5412;59.450;18.124;2022-07-03T08:46:10;23.30;99.90
10722;DHT22;5412;59.450;18.124;2022-07-03T08:48:37;23.20;99.90
10722;DHT22;5412;59.450;18.124;2022-07-03T08:51:02;22.80;99.90
10722;DHT22;5412;59.450;18.124;2022-07-03T08:53:28;23.00;99.90
10722;DHT22;5412;59.450;18.124;2022-07-03T08:55:54;22.90;99.90
10722;DHT22;5412;59.450;18.124;2022-07-03T08:58:22;23.30;99.90
10722;DHT22;5412;59.450;18.124;2022-07-03T09:00:48;23.40;99.90
10722;DHT22;5412;59.450;18.124;2022-07-03T09:03:14;23.40;99.90
10722;DHT22;5412;59.450;18.124;2022-07-03T09:05:40;23.60;99.90
10722;DHT22;5412;59.450;18.124;2022-07-03T09:08:07;23.60;99.90
10722;DHT22;5412;59.450;18.124;2022-07-03T09:10:33;23.60;99.90
10722;DHT22;5412;59.450;18.124;2022-07-03T09:12:59;23.70;99.90
10722;DHT22;5412;59.450;18.124;2022-07-03T09:15:25;24.10;99.90
10722;DHT22;5412;59.450;18.124;2022-07-03T09:18:17;24.10;99.90
10722;DHT22;5412;59.450;18.124;2022-07-03T09:20:42;24.00;99.90
10722;DHT22;5412;59.450;18.124;2022-07-03T09:26:03;23.70;99.90
10722;DHT22;5412;59.450;18.124;2022-07-03T09:28:48;23.40;99.90
10722;DHT22;5412;59.450;18.124;2022-07-03T09:31:18;23.30;99.90
10722;DHT22;5412;59.450;18.124;2022-07-03T09:34:01;23.30;99.90
10722;DHT22;5412;59.450;18.124;2022-07-03T09:36:46;23.50;99.90
10722;DHT22;5412;59.450;18.124;2022-07-03T09:39:26;23.80;99.90
10722;DHT22;5412;59.450;18.124;2022-07-03T09:44:42;23.70;99.90
10722;DHT22;5412;59.450;18.124;2022-07-03T09:49:57;24.10;99.90
10722;DHT22;5412;59.450;18.124;2022-07-03T09:52:38;24.00;99.90
10722;DHT22;5412;59.450;18.124;2022-07-03T10:00:22;23.60;99.90
10722;DHT22;5412;59.450;18.124;2022-07-03T10:03:08;23.60;99.90
10722;DHT22;5412;59.450;18.124;2022-07-03T10:05:38;23.70;99.90
10722;DHT22;5412;59.450;18.124;2022-07-03T10:08:09;23.70;99.90
10722;DHT22;5412;59.450;18.124;2022-07-03T10:10:40;23.80;99.90
10722;DHT22;5412;59.450;18.124;2022-07-03T10:13:06;23.80;99.90
10722;DHT22;5412;59.450;18.124;2022-07-03T10:15:33;23.80;99.90
10722;DHT22;5412;59.450;18.124;2022-07-03T10:18:04;23.60;99.90
10722;DHT22;5412;59.450;18.124;2022-07-03T10:20:51;23.70;99.90
10722;DHT22;5412;59.450;18.124;2022-07-03T10:23:20;23.80;99.90
10722;DHT22;5412;59.450;18.124;2022-07-03T10:25:46;23.90;99.90
10722;DHT22;5412;59.450;18.124;2022-07-03T10:28:13;23.90;99.90
10722;DHT22;5412;59.450;18.124;2022-07-03T10:30:40;23.80;99.90
10722;DHT22;5412;59.450;18.124;2022-07-03T10:33:08;23.60;99.90
10722;DHT22;5412;59.450;18.124;2022-07-03T10:35:34;23.60;99.90
10722;DHT22;5412;59.450;18.124;2022-07-03T10:43:42;23.70;99.90
10722;DHT22;5412;59.450;18.124;2022-07-03T10:46:27;23.90;99.90
10722;DHT22;5412;59.450;18.124;2022-07-03T10:49:09;24.10;99.90
10722;DHT22;5412;59.450;18.124;2022-07-03T10:54:29;24.30;99.90
10722;DHT22;5412;59.450;18.124;2022-07-03T11:13:10;23.90;99.90
10722;DHT22;5412;59.450;18.124;2022-07-03T11:15:40;24.00;99.90
10722;DHT22;5412;59.450;18.124;2022-07-03T11:18:15;24.10;99.90
10722;DHT22;5412;59.450;18.124;2022-07-03T11:25:57;24.80;99.00
10722;DHT22;5412;59.450;18.124;2022-07-03T11:31:16;24.50;99.30
10722;DHT22;5412;59.450;18.124;2022-07-03T11:41:29;25.20;96.20
10722;DHT22;5412;59.450;18.124;2022-07-03T11:44:06;25.00;96.40
10722;DHT22;5412;59.450;18.124;2022-07-03T11:46:37;25.00;96.30
10722;DHT22;5412;59.450;18.124;2022-07-03T11:51:40;25.30;95.80
10722;DHT22;5412;59.450;18.124;2022-07-03T11:54:06;25.40;95.90
10722;DHT22;5412;59.450;18.124;2022-07-03T11:56:33;25.60;97.00
10722;DHT22;5412;59.450;18.124;2022-07-03T11:59:02;25.60;95.70
10722;DHT22;5412;59.450;18.124;2022-07-03T12:01:33;25.40;94.90
10722;DHT22;5412;59.450;18.124;2022-07-03T12:09:25;25.00;94.90
10722;DHT22;5412;59.450;18.124;2022-07-03T12:14:46;24.80;93.90
10722;DHT22;5412;59.450;18.124;2022-07-03T12:17:13;24.80;94.30
10722;DHT22;5412;59.450;18.124;2022-07-03T12:22:29;25.20;93.40
10722;DHT22;5412;59.450;18.124;2022-07-03T12:25:06;25.40;93.10
10722;DHT22;5412;59.450;18.124;2022-07-03T12:27:34;25.50;93.60
10722;DHT22;5412;59.450;18.124;2022-07-03T12:30:01;25.90;92.10
10722;DHT22;5412;59.450;18.124;2022-07-03T12:32:28;26.00;92.70
10722;DHT22;5412;59.450;18.124;2022-07-03T12:34:53;26.20;92.10
10722;DHT22;5412;59.450;18.124;2022-07-03T12:37:33;26.50;91.00
10722;DHT22;5412;59.450;18.124;2022-07-03T12:39:59;26.90;90.50
10722;DHT22;5412;59.450;18.124;2022-07-03T12:42:25;27.20;91.10
10722;DHT22;5412;59.450;18.124;2022-07-03T12:45:01;26.90;87.70
10722;DHT22;5412;59.450;18.124;2022-07-03T12:47:29;26.40;90.10
10722;DHT22;5412;59.450;18.124;2022-07-03T12:50:00;26.50;89.70
10722;DHT22;5412;59.450;18.124;2022-07-03T12:52:30;26.90;90.50
10722;DHT22;5412;59.450;18.124;2022-07-03T12:54:56;26.90;87.20
10722;DHT22;5412;59.450;18.124;2022-07-03T12:57:23;26.90;88.90
10722;DHT22;5412;59.450;18.124;2022-07-03T13:00:11;27.10;86.60
10722;DHT22;5412;59.450;18.124;2022-07-03T13:02:38;26.80;85.00
10722;DHT22;5412;59.450;18.124;2022-07-03T13:05:19;26.90;84.60
10722;DHT22;5412;59.450;18.124;2022-07-03T13:07:47;26.30;86.00
10722;DHT22;5412;59.450;18.124;2022-07-03T13:10:18;26.20;87.50
10722;DHT22;5412;59.450;18.124;2022-07-03T13:12:50;26.20;89.60
10722;DHT22;5412;59.450;18.124;2022-07-03T13:15:16;25.70;87.90
10722;DHT22;5412;59.450;18.124;2022-07-03T13:20:45;25.10;90.60
10722;DHT22;5412;59.450;18.124;2022-07-03T13:23:11;25.40;90.80
10722;DHT22;5412;59.450;18.124;2022-07-03T13:25:37;25.50;91.60
10722;DHT22;5412;59.450;18.124;2022-07-03T13:28:10;26.30;91.70
10722;DHT22;5412;59.450;18.124;2022-07-03T13:30:36;26.30;90.50
10722;DHT22;5412;59.450;18.124;2022-07-03T13:33:05;25.80;90.90
10722;DHT22;5412;59.450;18.124;2022-07-03T13:35:31;25.50;91.00
10722;DHT22;5412;59.450;18.124;2022-07-03T13:37:57;25.40;92.00
10722;DHT22;5412;59.450;18.124;2022-07-03T13:40:22;25.30;91.40
10722;DHT22;5412;59.450;18.124;2022-07-03T13:42:48;25.20;92.20
10722;DHT22;5412;59.450;18.124;2022-07-03T13:45:14;25.30;92.60
10722;DHT22;5412;59.450;18.124;2022-07-03T13:47:40;25.10;91.90
10722;DHT22;5412;59.450;18.124;2022-07-03T13:50:06;24.60;91.60
10722;DHT22;5412;59.450;18.124;2022-07-03T13:52:32;24.60;92.50
10722;DHT22;5412;59.450;18.124;2022-07-03T13:54:57;24.50;92.40
10722;DHT22;5412;59.450;18.124;2022-07-03T13:57:23;24.30;92.10
10722;DHT22;5412;59.450;18.124;2022-07-03T13:59:48;24.20;92.70
10722;DHT22;5412;59.450;18.124;2022-07-03T14:02:15;24.30;92.80
10722;DHT22;5412;59.450;18.124;2022-07-03T14:04:40;24.40;93.50
10722;DHT22;5412;59.450;18.124;2022-07-03T14:07:06;24.40;93.30
10722;DHT22;5412;59.450;18.124;2022-07-03T14:09:32;24.40;93.30
10722;DHT22;5412;59.450;18.124;2022-07-03T14:11:57;24.60;94.20
10722;DHT22;5412;59.450;18.124;2022-07-03T14:14:23;24.80;93.40
10722;DHT22;5412;59.450;18.124;2022-07-03T14:16:48;24.90;93.50
10722;DHT22;5412;59.450;18.124;2022-07-03T14:19:14;24.80;94.00
10722;DHT22;5412;59.450;18.124;2022-07-03T14:21:40;24.70;93.70
10722;DHT22;5412;59.450;18.124;2022-07-03T14:24:05;24.80;93.80
10722;DHT22;5412;59.450;18.124;2022-07-03T14:26:31;24.80;93.40
10722;DHT22;5412;59.450;18.124;2022-07-03T14:29:15;25.00;93.60
10722;DHT22;5412;59.450;18.124;2022-07-03T14:31:59;25.30;93.40
10722;DHT22;5412;59.450;18.124;2022-07-03T14:34:43;25.20;93.70
10722;DHT22;5412;59.450;18.124;2022-07-03T14:37:09;25.00;93.30
10722;DHT22;5412;59.450;18.124;2022-07-03T14:39:35;24.90;93.40
10722;DHT22;5412;59.450;18.124;2022-07-03T14:42:01;24.80;93.70
10722;DHT22;5412;59.450;18.124;2022-07-03T14:44:28;24.70;94.30
10722;DHT22;5412;59.450;18.124;2022-07-03T14:46:55;24.60;94.30
10722;DHT22;5412;59.450;18.124;2022-07-03T14:49:21;24.70;94.50
10722;DHT22;5412;59.450;18.124;2022-07-03T14:51:46;24.70;94.70
10722;DHT22;5412;59.450;18.124;2022-07-03T14:54:17;24.70;96.90
10722;DHT22;5412;59.450;18.124;2022-07-03T14:56:54;24.70;98.30
10722;DHT22;5412;59.450;18.124;2022-07-03T15:01:56;24.70;99.60
10722;DHT22;5412;59.450;18.124;2022-07-03T15:05:02;24.80;99.90
10722;DHT22;5412;59.450;18.124;2022-07-03T15:07:37;24.70;99.90
10722;DHT22;5412;59.450;18.124;2022-07-03T15:10:05;24.70;99.90
10722;DHT22;5412;59.450;18.124;2022-07-03T15:12:34;24.60;99.90
10722;DHT22;5412;59.450;18.124;2022-07-03T15:15:02;24.50;99.90
10722;DHT22;5412;59.450;18.124;2022-07-03T15:17:28;24.70;99.90
10722;DHT22;5412;59.450;18.124;2022-07-03T15:19:55;24.70;99.90
10722;DHT22;5412;59.450;18.124;2022-07-03T15:22:22;24.80;99.90
10722;DHT22;5412;59.450;18.124;2022-07-03T15:24:51;25.00;99.90
10722;DHT22;5412;59.450;18.124;2022-07-03T15:27:21;25.10;99.90
10722;DHT22;5412;59.450;18.124;2022-07-03T15:29:48;25.00;99.90
10722;DHT22;5412;59.450;18.124;2022-07-03T15:32:15;25.00;99.90
10722;DHT22;5412;59.450;18.124;2022-07-03T15:34:41;25.10;99.90
10722;DHT22;5412;59.450;18.124;2022-07-03T15:39:55;24.90;99.90
10722;DHT22;5412;59.450;18.124;2022-07-03T15:48:07;24.90;99.90
10722;DHT22;5412;59.450;18.124;2022-07-03T15:50:49;24.60;99.90
10722;DHT22;5412;59.450;18.124;2022-07-03T15:53:20;24.50;99.90
10722;DHT22;5412;59.450;18.124;2022-07-03T15:55:48;24.40;99.90
10722;DHT22;5412;59.450;18.124;2022-07-03T15:58:21;24.30;99.90
10722;DHT22;5412;59.450;18.124;2022-07-03T16:00:51;24.10;99.90
10722;DHT22;5412;59.450;18.124;2022-07-03T16:06:26;24.10;99.90
10722;DHT22;5412;59.450;18.124;2022-07-03T16:08:53;23.90;99.90
10722;DHT22;5412;59.450;18.124;2022-07-03T16:11:19;23.80;99.90
10722;DHT22;5412;59.450;18.124;2022-07-03T16:13:46;23.80;99.90
10722;DHT22;5412;59.450;18.124;2022-07-03T16:16:13;23.80;99.90
10722;DHT22;5412;59.450;18.124;2022-07-03T16:18:40;24.00;99.90
10722;DHT22;5412;59.450;18.124;2022-07-03T16:21:07;24.30;99.90
10722;DHT22;5412;59.450;18.124;2022-07-03T16:23:33;25.50;99.90
10722;DHT22;5412;59.450;18.124;2022-07-03T16:25:59;25.70;99.90
10722;DHT22;5412;59.450;18.124;2022-07-03T16:28:25;25.80;99.90
10722;DHT22;5412;59.450;18.124;2022-07-03T16:30:52;25.80;99.90
10722;DHT22;5412;59.450;18.124;2022-07-03T16:33:22;25.60;99.90
10722;DHT22;5412;59.450;18.124;2022-07-03T16:36:02;25.40;99.90
10722;DHT22;5412;59.450;18.124;2022-07-03T16:38:35;25.20;99.90
10722;DHT22;5412;59.450;18.124;2022-07-03T16:41:05;25.10;99.90
10722;DHT22;5412;59.450;18.124;2022-07-03T16:43:32;25.00;99.90
10722;DHT22;5412;59.450;18.124;2022-07-03T16:45:58;25.10;99.90
10722;DHT22;5412;59.450;18.124;2022-07-03T16:48:28;25.20;99.50
10722;DHT22;5412;59.450;18.124;2022-07-03T16:50:58;25.20;98.20
10722;DHT22;5412;59.450;18.124;2022-07-03T16:53:27;25.10;98.60
10722;DHT22;5412;59.450;18.124;2022-07-03T16:55:52;25.20;99.40
10722;DHT22;5412;59.450;18.124;2022-07-03T16:58:19;25.40;99.30
10722;DHT22;5412;59.450;18.124;2022-07-03T17:00:45;25.20;98.60
10722;DHT22;5412;59.450;18.124;2022-07-03T17:03:12;25.10;98.70
10722;DHT22;5412;59.450;18.124;2022-07-03T17:05:38;25.20;98.40
10722;DHT22;5412;59.450;18.124;2022-07-03T17:08:04;25.40;98.50
10722;DHT22;5412;59.450;18.124;2022-07-03T17:10:30;25.40;98.50
10722;DHT22;5412;59.450;18.124;2022-07-03T17:12:58;25.60;98.50
10722;DHT22;5412;59.450;18.124;2022-07-03T17:15:26;25.70;98.30
10722;DHT22;5412;59.450;18.124;2022-07-03T17:18:02;25.70;98.20
10722;DHT22;5412;59.450;18.124;2022-07-03T17:20:34;25.80;98.10
10722;DHT22;5412;59.450;18.124;2022-07-03T17:25:41;25.40;98.10
10722;DHT22;5412;59.450;18.124;2022-07-03T17:28:08;25.40;97.30
10722;DHT22;5412;59.450;18.124;2022-07-03T17:30:39;25.00;97.70
10722;DHT22;5412;59.450;18.124;2022-07-03T17:33:09;24.90;98.40